sensor_id;sensor_type;location;lat;lon;timestamp;temperature;humidity
75838;SHT30;64480;52.040;113.502;2022-10-31T00:01:47;-0.80;63.42
75838;SHT30;64480;52.040;113.502;2022-10-31T00:04:53;-0.72;62.37
75838;SHT30;64480;52.040;113.502;2022-10-31T00:07:56;-0.69;62.25
75838;SHT30;64480;52.040;113.502;2022-10-31T00:11:00;-0.70;62.03
75838;SHT30;64480;52.040;113.502;2022-10-31T00:14:03;-0.66;62.48
75838;SHT30;64480;52.040;113.502;2022-10-31T00:17:07;-0.64;61.31
75838;SHT30;64480;52.040;113.502;2022-10-31T00:20:10;-0.62;61.39
75838;SHT30;64480;52.040;113.502;2022-10-31T00:23:13;-0.51;61.76
75838;SHT30;64480;52.040;113.502;2022-10-31T00:26:17;-0.34;60.68
75838;SHT30;64480;52.040;113.502;2022-10-31T00:29:24;-0.13;60.76
75838;SHT30;64480;52.040;113.502;2022-10-31T00:32:29;-0.11;60.05
75838;SHT30;64480;52.040;113.502;2022-10-31T00:35:36;-0.11;59.38
75838;SHT30;64480;52.040;113.502;2022-10-31T00:38:41;-0.22;58.25
75838;SHT30;64480;52.040;113.502;2022-10-31T00:41:44;-0.18;59.10
75838;SHT30;64480;52.040;113.502;2022-10-31T00:44:48;-0.24;58.15
75838;SHT30;64480;52.040;113.502;2022-10-31T00:47:51;-0.18;59.13
75838;SHT30;64480;52.040;113.502;2022-10-31T00:50:54;-0.31;58.47
75838;SHT30;64480;52.040;113.502;2022-10-31T00:54:08;-0.30;58.90
75838;SHT30;64480;52.040;113.502;2022-10-31T00:57:19;-0.37;57.47
75838;SHT30;64480;52.040;113.502;2022-10-31T01:00:22;-0.49;58.72
75838;SHT30;64480;52.040;113.502;2022-10-31T01:03:28;-0.38;59.04
75838;SHT30;64480;52.040;113.502;2022-10-31T01:06:32;-0.25;58.91
75838;SHT30;64480;52.040;113.502;2022-10-31T01:09:35;-0.18;58.45
75838;SHT30;64480;52.040;113.502;2022-10-31T01:12:46;-0.04;57.31
75838;SHT30;64480;52.040;113.502;2022-10-31T01:15:56;-0.07;57.54
75838;SHT30;64480;52.040;113.502;2022-10-31T01:19:00;0.00;57.43
75838;SHT30;64480;52.040;113.502;2022-10-31T01:22:05;0.04;57.29
75838;SHT30;64480;52.040;113.502;2022-10-31T01:25:09;0.07;56.89
75838;SHT30;64480;52.040;113.502;2022-10-31T01:28:12;0.25;57.46
75838;SHT30;64480;52.040;113.502;2022-10-31T01:31:17;0.28;57.24
75838;SHT30;64480;52.040;113.502;2022-10-31T01:34:20;0.34;55.28
75838;SHT30;64480;52.040;113.502;2022-10-31T01:37:24;0.38;54.90
75838;SHT30;64480;52.040;113.502;2022-10-31T01:40:29;0.19;54.54
75838;SHT30;64480;52.040;113.502;2022-10-31T01:43:50;0.24;54.96
75838;SHT30;64480;52.040;113.502;2022-10-31T01:47:01;0.15;55.35
75838;SHT30;64480;52.040;113.502;2022-10-31T01:50:12;0.28;56.12
75838;SHT30;64480;52.040;113.502;2022-10-31T01:53:17;0.31;55.59
75838;SHT30;64480;52.040;113.502;2022-10-31T01:56:24;0.41;56.07
75838;SHT30;64480;52.040;113.502;2022-10-31T01:59:30;0.46;54.71
75838;SHT30;64480;52.040;113.502;2022-10-31T02:02:35;0.70;55.44
75838;SHT30;64480;52.040;113.502;2022-10-31T02:05:39;0.79;53.14
75838;SHT30;64480;52.040;113.502;2022-10-31T02:08:44;0.86;53.83
75838;SHT30;64480;52.040;113.502;2022-10-31T02:11:51;1.05;52.33
75838;SHT30;64480;52.040;113.502;2022-10-31T02:14:55;1.09;51.79
75838;SHT30;64480;52.040;113.502;2022-10-31T02:17:58;1.09;51.75
75838;SHT30;64480;52.040;113.502;2022-10-31T02:24:44;1.00;51.79
75838;SHT30;64480;52.040;113.502;2022-10-31T02:31:36;1.14;51.02
75838;SHT30;64480;52.040;113.502;2022-10-31T02:34:52;1.08;51.20
75838;SHT30;64480;52.040;113.502;2022-10-31T02:42:09;1.38;49.07
75838;SHT30;64480;52.040;113.502;2022-10-31T02:45:25;1.28;51.18
75838;SHT30;64480;52.040;113.502;2022-10-31T02:48:39;1.31;49.44
75838;SHT30;64480;52.040;113.502;2022-10-31T02:51:44;1.35;48.82
75838;SHT30;64480;52.040;113.502;2022-10-31T02:54:50;1.34;48.60
75838;SHT30;64480;52.040;113.502;2022-10-31T03:02:09;1.13;49.19
75838;SHT30;64480;52.040;113.502;2022-10-31T03:08:24;1.23;48.82
75838;SHT30;64480;52.040;113.502;2022-10-31T03:11:40;1.38;48.51
75838;SHT30;64480;52.040;113.502;2022-10-31T03:15:19;1.30;47.04
75838;SHT30;64480;52.040;113.502;2022-10-31T03:18:49;1.07;46.81
75838;SHT30;64480;52.040;113.502;2022-10-31T03:22:01;1.11;47.69
75838;SHT30;64480;52.040;113.502;2022-10-31T03:25:06;1.05;47.40
75838;SHT30;64480;52.040;113.502;2022-10-31T03:28:15;1.28;49.28
75838;SHT30;64480;52.040;113.502;2022-10-31T03:31:25;1.23;46.79
75838;SHT30;64480;52.040;113.502;2022-10-31T03:34:33;1.30;47.09
75838;SHT30;64480;52.040;113.502;2022-10-31T03:37:40;1.27;46.26
75838;SHT30;64480;52.040;113.502;2022-10-31T03:40:51;1.31;47.79
75838;SHT30;64480;52.040;113.502;2022-10-31T03:43:59;1.49;46.94
75838;SHT30;64480;52.040;113.502;2022-10-31T03:47:04;1.49;46.15
75838;SHT30;64480;52.040;113.502;2022-10-31T03:50:09;1.41;46.07
75838;SHT30;64480;52.040;113.502;2022-10-31T03:53:22;1.36;46.66
75838;SHT30;64480;52.040;113.502;2022-10-31T04:00:22;1.52;47.32
75838;SHT30;64480;52.040;113.502;2022-10-31T04:03:32;1.74;46.57
75838;SHT30;64480;52.040;113.502;2022-10-31T04:06:38;1.89;45.34
75838;SHT30;64480;52.040;113.502;2022-10-31T04:09:45;1.89;43.55
75838;SHT30;64480;52.040;113.502;2022-10-31T04:12:54;1.80;44.54
75838;SHT30;64480;52.040;113.502;2022-10-31T04:16:08;1.72;44.60
75838;SHT30;64480;52.040;113.502;2022-10-31T04:19:15;1.80;45.15
75838;SHT30;64480;52.040;113.502;2022-10-31T04:22:18;1.89;46.01
75838;SHT30;64480;52.040;113.502;2022-10-31T04:25:22;2.11;47.33
75838;SHT30;64480;52.040;113.502;2022-10-31T04:28:26;2.31;43.30
75838;SHT30;64480;52.040;113.502;2022-10-31T04:31:29;2.17;43.49
75838;SHT30;64480;52.040;113.502;2022-10-31T04:34:33;2.07;45.66
75838;SHT30;64480;52.040;113.502;2022-10-31T04:37:36;2.06;44.06
75838;SHT30;64480;52.040;113.502;2022-10-31T04:40:39;1.98;40.90
75838;SHT30;64480;52.040;113.502;2022-10-31T04:44:07;1.56;40.82
75838;SHT30;64480;52.040;113.502;2022-10-31T04:47:10;1.45;44.13
75838;SHT30;64480;52.040;113.502;2022-10-31T04:50:14;1.49;44.76
75838;SHT30;64480;52.040;113.502;2022-10-31T04:53:19;1.41;43.87
75838;SHT30;64480;52.040;113.502;2022-10-31T04:56:41;1.27;45.00
75838;SHT30;64480;52.040;113.502;2022-10-31T04:59:49;1.25;44.58
75838;SHT30;64480;52.040;113.502;2022-10-31T05:02:57;1.21;44.73
75838;SHT30;64480;52.040;113.502;2022-10-31T05:06:02;1.30;44.83
75838;SHT30;64480;52.040;113.502;2022-10-31T05:09:05;1.45;43.48
75838;SHT30;64480;52.040;113.502;2022-10-31T05:12:08;1.45;42.46
75838;SHT30;64480;52.040;113.502;2022-10-31T05:15:30;1.63;42.18
75838;SHT30;64480;52.040;113.502;2022-10-31T05:18:57;1.73;42.63
75838;SHT30;64480;52.040;113.502;2022-10-31T05:22:43;1.48;42.81
75838;SHT30;64480;52.040;113.502;2022-10-31T05:25:47;1.36;43.71
75838;SHT30;64480;52.040;113.502;2022-10-31T05:29:07;1.23;43.10
75838;SHT30;64480;52.040;113.502;2022-10-31T05:32:11;1.17;44.24
75838;SHT30;64480;52.040;113.502;2022-10-31T05:35:34;0.98;43.19
75838;SHT30;64480;52.040;113.502;2022-10-31T05:38:56;0.84;43.23
75838;SHT30;64480;52.040;113.502;2022-10-31T05:42:03;0.84;43.53
75838;SHT30;64480;52.040;113.502;2022-10-31T05:45:11;1.08;42.00
75838;SHT30;64480;52.040;113.502;2022-10-31T05:48:35;1.11;40.00
75838;SHT30;64480;52.040;113.502;2022-10-31T05:52:01;1.14;40.76
75838;SHT30;64480;52.040;113.502;2022-10-31T05:55:17;1.30;39.64
75838;SHT30;64480;52.040;113.502;2022-10-31T05:58:47;1.38;39.14
75838;SHT30;64480;52.040;113.502;2022-10-31T06:01:54;1.28;40.76
75838;SHT30;64480;52.040;113.502;2022-10-31T06:05:19;1.27;40.72
75838;SHT30;64480;52.040;113.502;2022-10-31T06:08:47;1.21;39.96
75838;SHT30;64480;52.040;113.502;2022-10-31T06:11:54;1.04;42.62
75838;SHT30;64480;52.040;113.502;2022-10-31T06:15:00;0.98;41.57
75838;SHT30;64480;52.040;113.502;2022-10-31T06:18:05;0.83;42.14
75838;SHT30;64480;52.040;113.502;2022-10-31T06:21:14;0.62;44.57
75838;SHT30;64480;52.040;113.502;2022-10-31T06:24:18;0.48;43.66
75838;SHT30;64480;52.040;113.502;2022-10-31T06:27:38;0.38;44.45
75838;SHT30;64480;52.040;113.502;2022-10-31T06:30:47;0.42;44.24
75838;SHT30;64480;52.040;113.502;2022-10-31T06:33:51;0.49;43.42
75838;SHT30;64480;52.040;113.502;2022-10-31T06:36:54;0.69;43.62
75838;SHT30;64480;52.040;113.502;2022-10-31T06:40:00;0.76;42.28
75838;SHT30;64480;52.040;113.502;2022-10-31T06:43:08;0.80;41.70
75838;SHT30;64480;52.040;113.502;2022-10-31T06:46:11;0.76;42.65
75838;SHT30;64480;52.040;113.502;2022-10-31T06:49:22;0.75;42.15
75838;SHT30;64480;52.040;113.502;2022-10-31T06:52:28;0.75;42.95
75838;SHT30;64480;52.040;113.502;2022-10-31T06:55:32;0.81;42.74
75838;SHT30;64480;52.040;113.502;2022-10-31T06:58:35;0.94;41.05
75838;SHT30;64480;52.040;113.502;2022-10-31T07:01:41;0.90;40.73
75838;SHT30;64480;52.040;113.502;2022-10-31T07:04:45;0.89;39.77
75838;SHT30;64480;52.040;113.502;2022-10-31T07:07:58;0.84;39.82
75838;SHT30;64480;52.040;113.502;2022-10-31T07:11:05;0.81;41.48
75838;SHT30;64480;52.040;113.502;2022-10-31T07:14:09;0.80;42.07
75838;SHT30;64480;52.040;113.502;2022-10-31T07:17:12;0.79;42.64
75838;SHT30;64480;52.040;113.502;2022-10-31T07:20:18;0.69;40.80
75838;SHT30;64480;52.040;113.502;2022-10-31T07:23:24;0.68;41.33
75838;SHT30;64480;52.040;113.502;2022-10-31T07:26:50;0.56;41.65
75838;SHT30;64480;52.040;113.502;2022-10-31T07:29:54;0.52;42.75
75838;SHT30;64480;52.040;113.502;2022-10-31T07:32:57;0.51;43.34
75838;SHT30;64480;52.040;113.502;2022-10-31T07:36:20;0.56;44.25
75838;SHT30;64480;52.040;113.502;2022-10-31T07:39:25;0.46;43.68
75838;SHT30;64480;52.040;113.502;2022-10-31T07:42:29;0.37;44.58
75838;SHT30;64480;52.040;113.502;2022-10-31T07:45:32;0.26;44.56
75838;SHT30;64480;52.040;113.502;2022-10-31T07:49:08;0.10;43.63
75838;SHT30;64480;52.040;113.502;2022-10-31T07:52:29;-0.02;44.45
75838;SHT30;64480;52.040;113.502;2022-10-31T07:55:51;-0.09;43.81
75838;SHT30;64480;52.040;113.502;2022-10-31T07:58:54;-0.20;44.43
75838;SHT30;64480;52.040;113.502;2022-10-31T08:01:57;-0.25;45.15
75838;SHT30;64480;52.040;113.502;2022-10-31T08:05:06;-0.31;44.60
75838;SHT30;64480;52.040;113.502;2022-10-31T08:08:36;-0.32;45.08
75838;SHT30;64480;52.040;113.502;2022-10-31T08:11:45;-0.34;45.43
75838;SHT30;64480;52.040;113.502;2022-10-31T08:14:51;-0.38;46.16
75838;SHT30;64480;52.040;113.502;2022-10-31T08:17:54;-0.42;46.11
75838;SHT30;64480;52.040;113.502;2022-10-31T08:20:59;-0.38;46.68
75838;SHT30;64480;52.040;113.502;2022-10-31T08:24:02;-0.38;47.15
75838;SHT30;64480;52.040;113.502;2022-10-31T08:27:06;-0.37;47.68
75838;SHT30;64480;52.040;113.502;2022-10-31T08:30:09;-0.35;46.68
75838;SHT30;64480;52.040;113.502;2022-10-31T08:33:18;-0.35;46.96
75838;SHT30;64480;52.040;113.502;2022-10-31T08:36:39;-0.38;46.22
75838;SHT30;64480;52.040;113.502;2022-10-31T08:39:52;-0.42;45.07
75838;SHT30;64480;52.040;113.502;2022-10-31T08:43:01;-0.49;45.39
75838;SHT30;64480;52.040;113.502;2022-10-31T08:46:04;-0.52;45.74
75838;SHT30;64480;52.040;113.502;2022-10-31T08:49:08;-0.61;46.43
75838;SHT30;64480;52.040;113.502;2022-10-31T08:52:18;-0.58;45.71
75838;SHT30;64480;52.040;113.502;2022-10-31T08:55:24;-0.58;45.82
75838;SHT30;64480;52.040;113.502;2022-10-31T08:58:39;-0.54;45.07
75838;SHT30;64480;52.040;113.502;2022-10-31T09:01:44;-0.51;44.24
75838;SHT30;64480;52.040;113.502;2022-10-31T09:04:50;-0.48;43.67
75838;SHT30;64480;52.040;113.502;2022-10-31T09:07:57;-0.48;44.20
75838;SHT30;64480;52.040;113.502;2022-10-31T09:11:02;-0.51;43.28
75838;SHT30;64480;52.040;113.502;2022-10-31T09:14:28;-0.54;43.28
75838;SHT30;64480;52.040;113.502;2022-10-31T09:17:55;-0.61;43.29
75838;SHT30;64480;52.040;113.502;2022-10-31T09:21:33;-0.72;43.24
75838;SHT30;64480;52.040;113.502;2022-10-31T09:24:36;-0.77;43.12
75838;SHT30;64480;52.040;113.502;2022-10-31T09:27:41;-0.89;43.78
75838;SHT30;64480;52.040;113.502;2022-10-31T09:30:54;-0.96;44.52
75838;SHT30;64480;52.040;113.502;2022-10-31T09:34:15;-1.05;44.58
75838;SHT30;64480;52.040;113.502;2022-10-31T09:37:30;-1.18;44.35
75838;SHT30;64480;52.040;113.502;2022-10-31T09:40:44;-1.21;45.18
75838;SHT30;64480;52.040;113.502;2022-10-31T09:44:02;-1.21;44.52
75838;SHT30;64480;52.040;113.502;2022-10-31T09:47:31;-1.18;44.87
75838;SHT30;64480;52.040;113.502;2022-10-31T09:58:25;-1.44;43.91
75838;SHT30;64480;52.040;113.502;2022-10-31T10:01:48;-1.52;44.66
75838;SHT30;64480;52.040;113.502;2022-10-31T10:05:02;-1.63;44.10
75838;SHT30;64480;52.040;113.502;2022-10-31T10:08:18;-1.75;44.53
75838;SHT30;64480;52.040;113.502;2022-10-31T10:11:45;-1.82;44.42
75838;SHT30;64480;52.040;113.502;2022-10-31T10:15:05;-1.91;44.17
75838;SHT30;64480;52.040;113.502;2022-10-31T10:28:31;-2.11;43.91
75838;SHT30;64480;52.040;113.502;2022-10-31T10:31:42;-2.11;43.70
75838;SHT30;64480;52.040;113.502;2022-10-31T10:34:52;-2.07;43.44
75838;SHT30;64480;52.040;113.502;2022-10-31T10:38:08;-2.03;42.73
75838;SHT30;64480;52.040;113.502;2022-10-31T10:41:17;-1.90;42.17
75838;SHT30;64480;52.040;113.502;2022-10-31T10:44:20;-1.86;42.83
75838;SHT30;64480;52.040;113.502;2022-10-31T10:47:25;-1.80;41.84
75838;SHT30;64480;52.040;113.502;2022-10-31T10:50:48;-1.83;42.11
75838;SHT30;64480;52.040;113.502;2022-10-31T10:58:01;-1.82;42.57
75838;SHT30;64480;52.040;113.502;2022-10-31T11:01:13;-1.86;42.72
75838;SHT30;64480;52.040;113.502;2022-10-31T11:04:25;-1.93;43.23
75838;SHT30;64480;52.040;113.502;2022-10-31T11:07:40;-1.91;44.80
75838;SHT30;64480;52.040;113.502;2022-10-31T11:10:43;-1.94;44.87
75838;SHT30;64480;52.040;113.502;2022-10-31T11:13:49;-1.96;45.18
75838;SHT30;64480;52.040;113.502;2022-10-31T11:17:08;-2.04;45.19
75838;SHT30;64480;52.040;113.502;2022-10-31T11:23:18;-2.31;45.34
75838;SHT30;64480;52.040;113.502;2022-10-31T11:26:22;-2.42;45.72
75838;SHT30;64480;52.040;113.502;2022-10-31T11:29:25;-2.53;44.88
75838;SHT30;64480;52.040;113.502;2022-10-31T11:32:32;-2.63;45.46
75838;SHT30;64480;52.040;113.502;2022-10-31T11:35:40;-2.72;44.45
75838;SHT30;64480;52.040;113.502;2022-10-31T11:38:43;-2.81;44.50
75838;SHT30;64480;52.040;113.502;2022-10-31T11:41:47;-2.90;44.63
75838;SHT30;64480;52.040;113.502;2022-10-31T11:44:53;-2.93;44.84
75838;SHT30;64480;52.040;113.502;2022-10-31T11:47:58;-2.96;45.24
75838;SHT30;64480;52.040;113.502;2022-10-31T11:51:04;-3.03;45.22
75838;SHT30;64480;52.040;113.502;2022-10-31T11:54:19;-3.08;45.28
75838;SHT30;64480;52.040;113.502;2022-10-31T11:57:33;-3.12;45.54
75838;SHT30;64480;52.040;113.502;2022-10-31T12:00:38;-3.16;45.31
75838;SHT30;64480;52.040;113.502;2022-10-31T12:07:03;-3.28;45.25
75838;SHT30;64480;52.040;113.502;2022-10-31T12:10:16;-3.31;45.75
75838;SHT30;64480;52.040;113.502;2022-10-31T12:13:59;-3.35;46.22
75838;SHT30;64480;52.040;113.502;2022-10-31T12:17:14;-3.38;46.18
75838;SHT30;64480;52.040;113.502;2022-10-31T12:20:36;-3.38;46.35
75838;SHT30;64480;52.040;113.502;2022-10-31T12:37:20;-3.59;48.26
75838;SHT30;64480;52.040;113.502;2022-10-31T12:57:36;-3.74;50.37
75838;SHT30;64480;52.040;113.502;2022-10-31T13:00:43;-3.81;50.39
75838;SHT30;64480;52.040;113.502;2022-10-31T13:07:19;-3.88;50.44
75838;SHT30;64480;52.040;113.502;2022-10-31T13:14:16;-3.98;51.28
75838;SHT30;64480;52.040;113.502;2022-10-31T13:17:34;-3.98;51.67
75838;SHT30;64480;52.040;113.502;2022-10-31T13:20:45;-4.08;51.68
75838;SHT30;64480;52.040;113.502;2022-10-31T13:23:58;-4.12;51.55
75838;SHT30;64480;52.040;113.502;2022-10-31T13:27:21;-4.15;51.75
75838;SHT30;64480;52.040;113.502;2022-10-31T13:30:34;-4.16;51.94
75838;SHT30;64480;52.040;113.502;2022-10-31T13:33:46;-4.16;52.03
75838;SHT30;64480;52.040;113.502;2022-10-31T13:46:48;-4.24;52.58
75838;SHT30;64480;52.040;113.502;2022-10-31T13:50:20;-4.22;52.05
75838;SHT30;64480;52.040;113.502;2022-10-31T13:53:40;-4.21;51.84
75838;SHT30;64480;52.040;113.502;2022-10-31T13:56:49;-4.21;51.84
75838;SHT30;64480;52.040;113.502;2022-10-31T14:03:25;-4.22;51.56
75838;SHT30;64480;52.040;113.502;2022-10-31T14:07:25;-4.29;51.42
75838;SHT30;64480;52.040;113.502;2022-10-31T14:10:07;-4.33;51.51
75838;SHT30;64480;52.040;113.502;2022-10-31T14:14:08;-4.33;51.34
75838;SHT30;64480;52.040;113.502;2022-10-31T14:17:01;-4.35;51.61
75838;SHT30;64480;52.040;113.502;2022-10-31T14:23:39;-4.52;51.44
75838;SHT30;64480;52.040;113.502;2022-10-31T14:26:59;-4.57;51.45
75838;SHT30;64480;52.040;113.502;2022-10-31T14:30:17;-4.59;51.30
75838;SHT30;64480;52.040;113.502;2022-10-31T14:33:26;-4.62;51.84
75838;SHT30;64480;52.040;113.502;2022-10-31T14:36:49;-4.69;51.67
75838;SHT30;64480;52.040;113.502;2022-10-31T14:47:05;-4.81;51.16
75838;SHT30;64480;52.040;113.502;2022-10-31T14:50:23;-4.84;51.43
75838;SHT30;64480;52.040;113.502;2022-10-31T14:53:36;-4.91;51.26
75838;SHT30;64480;52.040;113.502;2022-10-31T14:56:52;-4.91;51.89
75838;SHT30;64480;52.040;113.502;2022-10-31T14:59:57;-4.91;51.64
75838;SHT30;64480;52.040;113.502;2022-10-31T15:03:18;-4.88;51.89
75838;SHT30;64480;52.040;113.502;2022-10-31T15:06:31;-4.94;51.99
75838;SHT30;64480;52.040;113.502;2022-10-31T15:09:40;-4.97;51.61
75838;SHT30;64480;52.040;113.502;2022-10-31T15:12:46;-4.97;51.23
75838;SHT30;64480;52.040;113.502;2022-10-31T15:15:54;-5.04;51.58
75838;SHT30;64480;52.040;113.502;2022-10-31T15:19:03;-5.04;51.64
75838;SHT30;64480;52.040;113.502;2022-10-31T15:22:13;-5.05;51.55
75838;SHT30;64480;52.040;113.502;2022-10-31T15:25:19;-5.07;51.58
75838;SHT30;64480;52.040;113.502;2022-10-31T15:28:24;-5.05;51.96
75838;SHT30;64480;52.040;113.502;2022-10-31T15:31:28;-5.05;51.50
75838;SHT30;64480;52.040;113.502;2022-10-31T15:34:40;-5.04;51.51
75838;SHT30;64480;52.040;113.502;2022-10-31T15:37:44;-5.04;52.11
75838;SHT30;64480;52.040;113.502;2022-10-31T15:41:01;-5.04;51.90
75838;SHT30;64480;52.040;113.502;2022-10-31T15:44:22;-5.01;51.66
75838;SHT30;64480;52.040;113.502;2022-10-31T15:47:29;-5.02;49.82
75838;SHT30;64480;52.040;113.502;2022-10-31T15:50:39;-5.02;50.97
75838;SHT30;64480;52.040;113.502;2022-10-31T15:53:47;-5.02;50.59
75838;SHT30;64480;52.040;113.502;2022-10-31T15:56:52;-5.07;50.74
75838;SHT30;64480;52.040;113.502;2022-10-31T15:59:55;-5.11;51.47
75838;SHT30;64480;52.040;113.502;2022-10-31T16:03:26;-5.15;50.83
75838;SHT30;64480;52.040;113.502;2022-10-31T16:06:30;-5.22;50.97
75838;SHT30;64480;52.040;113.502;2022-10-31T16:09:34;-5.29;51.47
75838;SHT30;64480;52.040;113.502;2022-10-31T16:12:43;-5.29;51.69
75838;SHT30;64480;52.040;113.502;2022-10-31T16:15:54;-5.35;51.69
75838;SHT30;64480;52.040;113.502;2022-10-31T16:19:46;-5.39;51.61
75838;SHT30;64480;52.040;113.502;2022-10-31T16:22:51;-5.44;52.01
75838;SHT30;64480;52.040;113.502;2022-10-31T16:25:56;-5.50;51.98
75838;SHT30;64480;52.040;113.502;2022-10-31T16:28:59;-5.56;51.93
75838;SHT30;64480;52.040;113.502;2022-10-31T16:32:22;-5.57;52.27
75838;SHT30;64480;52.040;113.502;2022-10-31T16:35:36;-5.59;52.20
75838;SHT30;64480;52.040;113.502;2022-10-31T16:38:41;-5.67;52.02
75838;SHT30;64480;52.040;113.502;2022-10-31T16:41:47;-5.73;52.51
75838;SHT30;64480;52.040;113.502;2022-10-31T16:44:52;-5.78;52.36
75838;SHT30;64480;52.040;113.502;2022-10-31T16:48:06;-5.78;52.57
75838;SHT30;64480;52.040;113.502;2022-10-31T16:51:10;-5.75;52.71
75838;SHT30;64480;52.040;113.502;2022-10-31T16:54:14;-5.78;52.01
75838;SHT30;64480;52.040;113.502;2022-10-31T16:57:25;-5.75;52.37
75838;SHT30;64480;52.040;113.502;2022-10-31T17:00:29;-5.75;52.56
75838;SHT30;64480;52.040;113.502;2022-10-31T17:03:35;-5.77;52.88
75838;SHT30;64480;52.040;113.502;2022-10-31T17:06:38;-5.81;53.04
75838;SHT30;64480;52.040;113.502;2022-10-31T17:09:45;-5.82;52.64
75838;SHT30;64480;52.040;113.502;2022-10-31T17:12:49;-5.80;52.27
75838;SHT30;64480;52.040;113.502;2022-10-31T17:15:55;-5.78;52.48
75838;SHT30;64480;52.040;113.502;2022-10-31T17:18:59;-5.82;52.66
75838;SHT30;64480;52.040;113.502;2022-10-31T17:22:03;-5.77;53.04
75838;SHT30;64480;52.040;113.502;2022-10-31T17:25:10;-5.80;52.62
75838;SHT30;64480;52.040;113.502;2022-10-31T17:28:15;-5.90;52.60
75838;SHT30;64480;52.040;113.502;2022-10-31T17:31:26;-5.87;53.26
75838;SHT30;64480;52.040;113.502;2022-10-31T17:34:30;-5.87;53.55
75838;SHT30;64480;52.040;113.502;2022-10-31T17:37:35;-5.94;53.11
75838;SHT30;64480;52.040;113.502;2022-10-31T17:40:40;-6.01;53.77
75838;SHT30;64480;52.040;113.502;2022-10-31T17:43:46;-6.05;53.65
75838;SHT30;64480;52.040;113.502;2022-10-31T17:46:49;-6.11;53.79
75838;SHT30;64480;52.040;113.502;2022-10-31T17:49:56;-6.08;54.02
75838;SHT30;64480;52.040;113.502;2022-10-31T17:53:00;-6.08;53.54
75838;SHT30;64480;52.040;113.502;2022-10-31T17:56:08;-6.15;53.43
75838;SHT30;64480;52.040;113.502;2022-10-31T17:59:11;-6.23;53.59
75838;SHT30;64480;52.040;113.502;2022-10-31T18:02:15;-6.28;54.07
75838;SHT30;64480;52.040;113.502;2022-10-31T18:05:18;-6.33;54.00
75838;SHT30;64480;52.040;113.502;2022-10-31T18:08:30;-6.41;54.52
75838;SHT30;64480;52.040;113.502;2022-10-31T18:11:34;-6.50;54.45
75838;SHT30;64480;52.040;113.502;2022-10-31T18:14:38;-6.46;54.74
75838;SHT30;64480;52.040;113.502;2022-10-31T18:17:43;-6.51;55.02
75838;SHT30;64480;52.040;113.502;2022-10-31T18:20:47;-6.50;55.16
75838;SHT30;64480;52.040;113.502;2022-10-31T18:23:55;-6.53;55.40
75838;SHT30;64480;52.040;113.502;2022-10-31T18:26:59;-6.58;55.38
75838;SHT30;64480;52.040;113.502;2022-10-31T18:30:03;-6.68;55.64
75838;SHT30;64480;52.040;113.502;2022-10-31T18:33:07;-6.77;55.57
75838;SHT30;64480;52.040;113.502;2022-10-31T18:36:11;-6.77;55.68
75838;SHT30;64480;52.040;113.502;2022-10-31T18:39:15;-6.80;56.02
75838;SHT30;64480;52.040;113.502;2022-10-31T18:42:18;-6.84;55.62
75838;SHT30;64480;52.040;113.502;2022-10-31T18:45:22;-6.85;56.13
75838;SHT30;64480;52.040;113.502;2022-10-31T18:48:34;-6.92;56.22
75838;SHT30;64480;52.040;113.502;2022-10-31T18:51:38;-6.92;56.50
75838;SHT30;64480;52.040;113.502;2022-10-31T18:54:42;-6.91;56.28
75838;SHT30;64480;52.040;113.502;2022-10-31T18:57:46;-6.94;56.06
75838;SHT30;64480;52.040;113.502;2022-10-31T19:00:50;-6.99;56.12
75838;SHT30;64480;52.040;113.502;2022-10-31T19:03:54;-7.01;56.28
75838;SHT30;64480;52.040;113.502;2022-10-31T19:06:58;-6.99;56.41
75838;SHT30;64480;52.040;113.502;2022-10-31T19:10:02;-6.98;56.33
75838;SHT30;64480;52.040;113.502;2022-10-31T19:13:06;-6.95;56.52
75838;SHT30;64480;52.040;113.502;2022-10-31T19:16:13;-6.95;56.15
75838;SHT30;64480;52.040;113.502;2022-10-31T19:19:19;-6.95;56.14
75838;SHT30;64480;52.040;113.502;2022-10-31T19:22:22;-6.99;56.24
75838;SHT30;64480;52.040;113.502;2022-10-31T19:25:26;-7.03;56.46
75838;SHT30;64480;52.040;113.502;2022-10-31T19:28:33;-7.05;56.29
75838;SHT30;64480;52.040;113.502;2022-10-31T19:31:37;-7.08;56.65
75838;SHT30;64480;52.040;113.502;2022-10-31T19:34:41;-7.08;56.65
75838;SHT30;64480;52.040;113.502;2022-10-31T19:37:44;-7.09;56.38
75838;SHT30;64480;52.040;113.502;2022-10-31T19:40:47;-7.18;56.70
75838;SHT30;64480;52.040;113.502;2022-10-31T19:43:51;-7.24;56.59
75838;SHT30;64480;52.040;113.502;2022-10-31T19:46:55;-7.20;56.85
75838;SHT30;64480;52.040;113.502;2022-10-31T19:49:58;-7.15;56.85
75838;SHT30;64480;52.040;113.502;2022-10-31T19:53:02;-7.13;56.75
75838;SHT30;64480;52.040;113.502;2022-10-31T19:56:20;-7.11;56.77
75838;SHT30;64480;52.040;113.502;2022-10-31T19:59:24;-7.15;57.01
75838;SHT30;64480;52.040;113.502;2022-10-31T20:02:28;-7.15;56.60
75838;SHT30;64480;52.040;113.502;2022-10-31T20:05:31;-7.19;56.64
75838;SHT30;64480;52.040;113.502;2022-10-31T20:08:35;-7.16;56.71
75838;SHT30;64480;52.040;113.502;2022-10-31T20:11:42;-7.13;56.22
75838;SHT30;64480;52.040;113.502;2022-10-31T20:14:45;-7.13;56.18
75838;SHT30;64480;52.040;113.502;2022-10-31T20:17:48;-7.13;55.56
75838;SHT30;64480;52.040;113.502;2022-10-31T20:20:53;-7.13;55.89
75838;SHT30;64480;52.040;113.502;2022-10-31T20:24:01;-7.12;55.60
75838;SHT30;64480;52.040;113.502;2022-10-31T20:27:05;-7.15;55.39
75838;SHT30;64480;52.040;113.502;2022-10-31T20:30:10;-7.16;55.35
75838;SHT30;64480;52.040;113.502;2022-10-31T20:33:14;-7.13;55.43
75838;SHT30;64480;52.040;113.502;2022-10-31T20:36:17;-7.13;55.23
75838;SHT30;64480;52.040;113.502;2022-10-31T20:39:21;-7.11;55.14
75838;SHT30;64480;52.040;113.502;2022-10-31T20:42:24;-7.11;55.15
75838;SHT30;64480;52.040;113.502;2022-10-31T20:45:30;-7.06;55.19
75838;SHT30;64480;52.040;113.502;2022-10-31T20:48:34;-7.02;54.35
75838;SHT30;64480;52.040;113.502;2022-10-31T20:51:37;-7.01;54.51
75838;SHT30;64480;52.040;113.502;2022-10-31T20:54:40;-7.01;54.11
75838;SHT30;64480;52.040;113.502;2022-10-31T20:57:44;-6.96;54.23
75838;SHT30;64480;52.040;113.502;2022-10-31T21:00:47;-6.88;54.06
75838;SHT30;64480;52.040;113.502;2022-10-31T21:03:51;-6.89;54.38
75838;SHT30;64480;52.040;113.502;2022-10-31T21:06:55;-6.87;54.85
75838;SHT30;64480;52.040;113.502;2022-10-31T21:09:58;-6.80;53.73
75838;SHT30;64480;52.040;113.502;2022-10-31T21:13:01;-6.82;53.42
75838;SHT30;64480;52.040;113.502;2022-10-31T21:16:11;-6.85;53.54